Time;durP1;ratioP1;P1;durP2;ratioP2;P2;SDS_P1;SDS_P2;PMS_P1;PMS_P2;Temp;Humidity;BMP_temperature;BMP_pressure;BME280_temperature;BME280_humidity;BME280_pressure;Samples;Min_cycle;Max_cycle;Signal;HPM_P1;HPM_P2
2023/01/09 00:01:50;;;;;;;2.83;2.40;;;4.50;99.90;;;;;;5006963;28;20224;-81
2023/01/09 00:04:19;;;;;;;3.80;2.40;;;4.50;99.90;;;;;;4992873;28;20217;-81
2023/01/09 00:06:52;;;;;;;4.70;2.37;;;4.40;99.90;;;;;;5007609;28;20249;-82
2023/01/09 00:09:19;;;;;;;2.37;2.17;;;4.40;99.90;;;;;;5009033;28;20223;-81
2023/01/09 00:11:46;;;;;;;2.63;2.27;;;4.30;99.90;;;;;;4990361;28;20234;-82
2023/01/09 00:14:13;;;;;;;2.60;2.40;;;4.30;99.90;;;;;;4990313;28;20226;-81
2023/01/09 00:16:40;;;;;;;3.17;2.77;;;4.30;99.90;;;;;;4996420;28;20234;-83
2023/01/09 00:19:07;;;;;;;3.27;2.63;;;4.20;99.90;;;;;;4992555;28;20293;-83
2023/01/09 00:21:36;;;;;;;3.67;2.43;;;4.20;99.90;;;;;;5002912;28;20757;-83
2023/01/09 00:24:04;;;;;;;3.77;3.10;;;4.10;99.90;;;;;;5011377;28;20245;-83
2023/01/09 00:26:31;;;;;;;3.07;2.50;;;4.10;99.90;;;;;;5006685;28;20230;-82
2023/01/09 00:29:01;;;;;;;2.63;2.43;;;4.10;99.90;;;;;;4997979;28;20226;-82
2023/01/09 00:31:28;;;;;;;3.27;2.97;;;4.00;99.90;;;;;;4986121;28;20286;-83
2023/01/09 00:33:58;;;;;;;2.93;2.63;;;4.00;99.90;;;;;;5000245;28;20281;-82
2023/01/09 00:36:25;;;;;;;3.10;2.80;;;4.00;99.90;;;;;;5009277;28;20320;-83
2023/01/09 00:38:53;;;;;;;3.47;2.63;;;4.00;99.90;;;;;;4979680;28;20242;-82
2023/01/09 00:41:23;;;;;;;4.30;3.10;;;4.00;99.90;;;;;;5006708;28;20225;-82
2023/01/09 00:43:53;;;;;;;4.73;2.80;;;4.00;99.90;;;;;;5006592;28;20233;-83
2023/01/09 00:46:22;;;;;;;5.60;2.97;;;4.00;99.90;;;;;;4984699;28;20224;-83
2023/01/09 00:48:49;;;;;;;4.50;2.87;;;4.00;99.90;;;;;;5008964;28;20873;-83
2023/01/09 00:51:19;;;;;;;3.90;2.63;;;4.00;99.90;;;;;;5001634;28;20230;-83
2023/01/09 00:53:46;;;;;;;5.13;2.90;;;4.00;99.90;;;;;;4980011;28;20427;-83
2023/01/09 00:56:18;;;;;;;5.80;2.97;;;4.10;99.90;;;;;;4987753;28;20225;-81
2023/01/09 00:58:45;;;;;;;3.80;2.93;;;4.10;99.90;;;;;;5006043;28;20253;-82
2023/01/09 01:01:12;;;;;;;4.27;2.77;;;4.20;99.90;;;;;;5003162;28;20586;-82
2023/01/09 01:03:39;;;;;;;3.33;2.60;;;4.20;99.90;;;;;;4994242;28;20308;-82
2023/01/09 01:08:51;;;;;;;3.43;2.53;;;4.30;99.90;;;;;;5015089;28;20242;-82
2023/01/09 01:11:19;;;;;;;2.97;2.33;;;4.30;99.90;;;;;;4995261;28;20286;-82
2023/01/09 01:13:46;;;;;;;4.30;2.50;;;4.30;99.90;;;;;;5002484;28;20236;-83
2023/01/09 01:16:14;;;;;;;2.63;2.40;;;4.40;99.90;;;;;;4997066;28;20225;-82
2023/01/09 01:18:41;;;;;;;2.53;2.33;;;4.40;99.90;;;;;;4987865;28;20968;-82
2023/01/09 01:21:09;;;;;;;3.10;2.37;;;4.40;99.90;;;;;;4994990;28;20232;-82
2023/01/09 01:23:36;;;;;;;3.73;2.47;;;4.40;99.90;;;;;;5004380;28;20246;-82
2023/01/09 01:26:07;;;;;;;3.47;2.37;;;4.40;99.90;;;;;;4995884;28;20450;-82
2023/01/09 01:28:35;;;;;;;3.50;2.27;;;4.40;99.90;;;;;;5008840;28;20872;-82
2023/01/09 01:31:04;;;;;;;3.47;2.60;;;4.40;99.90;;;;;;4989127;28;20217;-82
2023/01/09 01:33:31;;;;;;;2.73;2.33;;;4.40;99.90;;;;;;5008082;28;20229;-82
2023/01/09 01:36:02;;;;;;;4.67;2.60;;;4.40;99.90;;;;;;4984625;28;20237;-82
2023/01/09 01:38:30;;;;;;;3.47;2.70;;;4.40;99.90;;;;;;4999474;28;20314;-82
2023/01/09 01:40:57;;;;;;;3.53;2.30;;;4.40;99.90;;;;;;4986459;28;20226;-83
2023/01/09 01:43:23;;;;;;;3.40;2.50;;;4.40;99.90;;;;;;5003974;28;21748;-82
2023/01/09 01:45:52;;;;;;;3.33;2.43;;;4.40;99.90;;;;;;5000128;28;20234;-82
2023/01/09 01:48:22;;;;;;;4.27;2.63;;;4.40;99.90;;;;;;4985749;28;20253;-83
2023/01/09 01:50:53;;;;;;;4.53;2.30;;;4.50;99.90;;;;;;5004451;28;20277;-82
2023/01/09 01:53:24;;;;;;;2.77;2.47;;;4.50;99.90;;;;;;5007888;28;20905;-83
2023/01/09 01:56:03;;;;;;;3.30;2.60;;;4.50;99.90;;;;;;5004937;28;20235;-84
2023/01/09 01:58:30;;;;;;;4.30;2.70;;;4.50;99.90;;;;;;5003169;28;20257;-83
2023/01/09 02:00:58;;;;;;;3.47;2.33;;;4.50;99.90;;;;;;4987258;28;20302;-83
2023/01/09 02:03:28;;;;;;;3.83;2.60;;;4.60;99.90;;;;;;5000137;28;20282;-83
2023/01/09 02:05:55;;;;;;;4.73;2.87;;;4.60;99.90;;;;;;4990186;28;20229;-83
2023/01/09 02:08:22;;;;;;;4.33;2.30;;;4.60;99.90;;;;;;4985574;28;20231;-82
2023/01/09 02:10:50;;;;;;;4.97;2.90;;;4.70;99.90;;;;;;5007568;28;20234;-84
2023/01/09 02:13:18;;;;;;;5.73;2.97;;;4.70;99.90;;;;;;5002524;28;20216;-83
2023/01/09 02:15:59;;;;;;;4.13;2.83;;;4.70;99.90;;;;;;5006528;28;20775;-82
2023/01/09 02:18:50;;;;;;;2.90;2.60;;;4.80;99.90;;;;;;5005513;28;20226;-83
2023/01/09 02:21:29;;;;;;;6.67;2.57;;;4.80;99.90;;;;;;4996711;28;20311;-83
2023/01/09 02:24:11;;;;;;;3.93;2.80;;;4.90;99.90;;;;;;4992597;28;20228;-84
2023/01/09 02:27:07;;;;;;;4.00;2.87;;;4.90;99.90;;;;;;5002260;28;20286;-83
2023/01/09 02:30:08;;;;;;;5.03;2.17;;;5.00;99.90;;;;;;4984062;28;20808;-82
2023/01/09 02:32:54;;;;;;;3.27;2.60;;;5.00;99.90;;;;;;4987070;28;20869;-83
2023/01/09 02:35:46;;;;;;;3.47;2.63;;;5.10;99.90;;;;;;4989778;28;20985;-82
2023/01/09 02:38:22;;;;;;;4.80;2.33;;;5.10;99.90;;;;;;4992582;28;20220;-82
2023/01/09 02:40:58;;;;;;;3.90;2.47;;;5.10;99.90;;;;;;4996517;28;20231;-82
2023/01/09 02:43:28;;;;;;;4.07;2.63;;;5.20;99.90;;;;;;4997565;28;20729;-83
2023/01/09 02:45:56;;;;;;;2.40;2.20;;;5.20;99.90;;;;;;5000793;28;20292;-83
2023/01/09 02:48:23;;;;;;;3.20;2.30;;;5.20;99.90;;;;;;5002271;28;20862;-83
2023/01/09 02:50:59;;;;;;;2.40;2.20;;;5.20;99.90;;;;;;5003730;28;20609;-83
2023/01/09 02:53:58;;;;;;;2.77;2.20;;;5.20;99.90;;;;;;4994931;28;20226;-83
2023/01/09 02:56:58;;;;;;;3.80;2.40;;;5.30;99.90;;;;;;4984154;28;20406;-83
2023/01/09 02:59:31;;;;;;;4.30;2.60;;;5.30;99.90;;;;;;4997403;28;20310;-83
2023/01/09 03:02:15;;;;;;;7.67;3.10;;;5.40;99.90;;;;;;4997912;28;20878;-83
2023/01/09 03:04:51;;;;;;;3.23;2.57;;;5.40;99.90;;;;;;5001112;28;20889;-84
2023/01/09 03:07:25;;;;;;;3.33;2.47;;;5.40;99.90;;;;;;5005173;28;20272;-83
2023/01/09 03:09:56;;;;;;;4.27;2.60;;;5.40;99.90;;;;;;5005941;28;20242;-83
2023/01/09 03:12:29;;;;;;;4.83;2.57;;;5.40;99.90;;;;;;4987568;28;20224;-83
2023/01/09 03:15:00;;;;;;;3.40;2.30;;;5.50;99.90;;;;;;5008552;28;20225;-83
2023/01/09 03:17:31;;;;;;;3.63;2.20;;;5.50;99.90;;;;;;5006309;28;20236;-83
2023/01/09 03:20:00;;;;;;;3.73;2.13;;;5.50;99.90;;;;;;5003669;28;20285;-83
2023/01/09 03:22:27;;;;;;;2.43;2.20;;;5.40;99.90;;;;;;5005462;28;20242;-83
2023/01/09 03:24:54;;;;;;;2.43;2.13;;;5.50;99.90;;;;;;4997378;28;20509;-83
2023/01/09 03:27:20;;;;;;;3.40;2.13;;;5.50;99.90;;;;;;4990154;28;20227;-83
2023/01/09 03:29:47;;;;;;;2.80;2.10;;;5.50;99.90;;;;;;5005292;28;20214;-83
2023/01/09 03:32:14;;;;;;;2.77;2.30;;;5.50;99.90;;;;;;4991941;28;20748;-83
2023/01/09 03:34:42;;;;;;;3.37;2.10;;;5.50;99.90;;;;;;5008366;28;20754;-83
2023/01/09 03:37:09;;;;;;;3.27;2.30;;;5.60;99.90;;;;;;4988137;28;20312;-84
2023/01/09 03:39:36;;;;;;;2.80;2.10;;;5.60;99.90;;;;;;4996931;28;20974;-84
2023/01/09 03:42:03;;;;;;;3.53;2.50;;;5.60;99.90;;;;;;5009297;28;20228;-83
2023/01/09 03:44:29;;;;;;;3.27;2.53;;;5.60;99.90;;;;;;4986936;28;20234;-84
2023/01/09 03:46:56;;;;;;;2.47;1.93;;;5.60;99.90;;;;;;4996124;28;20236;-83
2023/01/09 03:49:23;;;;;;;3.50;2.30;;;5.70;99.90;;;;;;5007857;28;20222;-83
2023/01/09 03:51:51;;;;;;;4.50;2.13;;;5.70;99.90;;;;;;4992115;28;20333;-83
2023/01/09 03:54:18;;;;;;;2.43;2.07;;;5.70;99.90;;;;;;4992501;28;20224;-82
2023/01/09 03:56:45;;;;;;;2.00;1.70;;;5.70;99.90;;;;;;4988994;28;20240;-83
2023/01/09 03:59:12;;;;;;;3.70;2.03;;;5.70;99.90;;;;;;5006379;28;20309;-82
2023/01/09 04:01:39;;;;;;;3.23;2.03;;;5.70;99.90;;;;;;5006404;28;20240;-80
2023/01/09 04:04:05;;;;;;;3.57;1.90;;;5.70;99.90;;;;;;5005568;28;20232;-80
2023/01/09 04:06:32;;;;;;;4.40;1.93;;;5.70;99.90;;;;;;5006603;28;20222;-80
2023/01/09 04:09:00;;;;;;;6.20;2.00;;;5.70;99.90;;;;;;5006841;28;20227;-81
2023/01/09 04:11:27;;;;;;;4.37;1.97;;;5.70;99.90;;;;;;5002856;28;20628;-80
2023/01/09 04:13:54;;;;;;;2.10;1.90;;;5.70;99.90;;;;;;5006975;28;20213;-80
2023/01/09 04:16:20;;;;;;;3.80;2.10;;;5.70;99.90;;;;;;5007308;28;20242;-80
2023/01/09 04:18:47;;;;;;;2.40;1.70;;;5.70;99.90;;;;;;4990169;28;20243;-79
2023/01/09 04:21:14;;;;;;;3.70;2.00;;;5.70;99.90;;;;;;4990889;28;20249;-80
2023/01/09 04:23:40;;;;;;;4.27;1.93;;;5.70;99.90;;;;;;5009048;28;20317;-79
2023/01/09 04:26:08;;;;;;;3.13;2.13;;;5.70;99.90;;;;;;5008858;28;20333;-79
2023/01/09 04:28:35;;;;;;;2.40;2.00;;;5.70;99.90;;;;;;4990951;28;20235;-79
2023/01/09 04:31:02;;;;;;;2.63;1.87;;;5.70;99.90;;;;;;4995696;28;20237;-80
2023/01/09 04:33:29;;;;;;;2.80;1.90;;;5.70;99.90;;;;;;5000399;28;20749;-79
2023/01/09 04:35:55;;;;;;;2.73;1.80;;;5.70;99.90;;;;;;4987913;28;20228;-79
2023/01/09 04:38:22;;;;;;;2.07;1.70;;;5.60;99.90;;;;;;5006690;28;20251;-79
2023/01/09 04:40:49;;;;;;;4.30;2.13;;;5.60;99.90;;;;;;5003764;28;20240;-79
2023/01/09 04:43:17;;;;;;;2.93;2.03;;;5.60;99.90;;;;;;5005754;28;20308;-79
2023/01/09 04:45:44;;;;;;;3.20;1.80;;;5.60;99.90;;;;;;4991854;28;20252;-79
2023/01/09 04:48:11;;;;;;;5.17;1.97;;;5.60;99.90;;;;;;5000391;28;20248;-79
2023/01/09 04:50:37;;;;;;;4.63;2.17;;;5.60;99.90;;;;;;4980720;28;20232;-79
2023/01/09 04:53:04;;;;;;;2.40;1.70;;;5.60;99.90;;;;;;4991740;28;20239;-80
2023/01/09 04:55:31;;;;;;;4.17;1.90;;;5.60;99.90;;;;;;5023497;28;20227;-79
2023/01/09 04:57:58;;;;;;;5.03;1.80;;;5.60;99.90;;;;;;4994757;28;20289;-80
2023/01/09 05:00:28;;;;;;;2.17;1.70;;;5.60;99.90;;;;;;5008202;28;20237;-80
2023/01/09 05:02:55;;;;;;;2.10;1.90;;;5.50;99.90;;;;;;5003270;28;20926;-79
2023/01/09 05:05:22;;;;;;;2.63;1.63;;;5.50;99.90;;;;;;5008166;28;20294;-80
2023/01/09 05:07:49;;;;;;;3.90;2.20;;;5.50;99.90;;;;;;5009944;28;20703;-79
2023/01/09 05:10:16;;;;;;;3.13;1.80;;;5.50;99.90;;;;;;4991793;28;20244;-79
2023/01/09 05:12:43;;;;;;;2.07;1.87;;;5.50;99.90;;;;;;4990596;28;20247;-79
2023/01/09 05:15:10;;;;;;;4.27;2.10;;;5.50;99.90;;;;;;5002686;28;20232;-80
2023/01/09 05:17:38;;;;;;;3.07;1.70;;;5.50;99.90;;;;;;4993260;28;20232;-79
2023/01/09 05:20:05;;;;;;;2.73;1.50;;;5.50;99.90;;;;;;4993137;28;20229;-80
2023/01/09 05:22:32;;;;;;;2.30;1.67;;;5.50;99.90;;;;;;4993672;28;20251;-81
2023/01/09 05:24:59;;;;;;;9.63;1.70;;;5.50;99.90;;;;;;5011334;28;20255;-80
2023/01/09 05:27:27;;;;;;;3.23;1.80;;;5.50;99.90;;;;;;4990775;28;20227;-79
2023/01/09 05:29:55;;;;;;;1.93;1.67;;;5.50;99.90;;;;;;5009777;28;20231;-79
2023/01/09 05:32:22;;;;;;;3.03;1.90;;;5.50;99.90;;;;;;5001979;28;20267;-79
2023/01/09 05:34:50;;;;;;;3.33;2.07;;;5.50;99.90;;;;;;5002607;28;20241;-80
2023/01/09 05:37:17;;;;;;;3.40;1.77;;;5.60;99.90;;;;;;4994537;28;20225;-81
2023/01/09 05:39:44;;;;;;;5.33;2.20;;;5.60;99.90;;;;;;4992521;28;20232;-79
2023/01/09 05:42:11;;;;;;;3.67;2.00;;;5.50;99.90;;;;;;5009505;28;20260;-80
2023/01/09 05:44:39;;;;;;;3.80;2.30;;;5.60;99.90;;;;;;5009813;28;20227;-80
2023/01/09 05:47:06;;;;;;;2.53;2.10;;;5.60;99.90;;;;;;4998397;28;20337;-81
2023/01/09 05:49:32;;;;;;;4.97;2.10;;;5.60;99.90;;;;;;4991687;28;20245;-80
2023/01/09 05:52:03;;;;;;;3.63;1.97;;;5.60;99.90;;;;;;5008354;28;20249;-81
2023/01/09 05:54:30;;;;;;;2.10;1.90;;;5.60;99.90;;;;;;4991669;28;20255;-81
2023/01/09 05:56:57;;;;;;;2.40;2.00;;;5.60;99.90;;;;;;4990771;28;20252;-81
2023/01/09 05:59:25;;;;;;;2.40;1.80;;;5.60;99.90;;;;;;4989239;28;20238;-81
2023/01/09 06:01:53;;;;;;;2.17;1.60;;;5.60;99.90;;;;;;5005496;28;20845;-82
2023/01/09 06:04:20;;;;;;;2.83;1.87;;;5.60;99.90;;;;;;4988944;28;20232;-82
2023/01/09 06:06:47;;;;;;;3.10;2.03;;;5.50;99.90;;;;;;4992462;28;20262;-83
2023/01/09 06:09:17;;;;;;;2.53;1.70;;;5.60;99.90;;;;;;5000944;28;20893;-81
2023/01/09 06:11:44;;;;;;;2.87;1.80;;;5.60;99.90;;;;;;4989972;28;20228;-81
2023/01/09 06:14:11;;;;;;;3.80;1.63;;;5.60;99.90;;;;;;5007583;28;20272;-81
2023/01/09 06:16:38;;;;;;;2.97;1.70;;;5.60;99.90;;;;;;5007578;28;20936;-81
2023/01/09 06:19:05;;;;;;;2.40;1.63;;;5.60;99.90;;;;;;5008037;28;20287;-81
2023/01/09 06:21:32;;;;;;;2.47;1.57;;;5.60;99.90;;;;;;4982426;28;20250;-80
2023/01/09 06:23:59;;;;;;;3.37;1.63;;;5.60;99.90;;;;;;5006953;28;20643;-80
2023/01/09 06:26:27;;;;;;;2.63;1.40;;;5.60;99.90;;;;;;5005856;28;20232;-79
2023/01/09 06:28:55;;;;;;;6.03;3.83;;;5.60;99.90;;;;;;4988678;28;20286;-80
2023/01/09 06:31:22;;;;;;;2.17;1.40;;;5.70;99.90;;;;;;4995749;28;20235;-79
2023/01/09 06:33:49;;;;;;;2.83;1.50;;;5.70;99.90;;;;;;5005677;28;20674;-79
2023/01/09 06:36:18;;;;;;;2.70;1.37;;;5.70;99.90;;;;;;5005497;28;20236;-79
2023/01/09 06:38:44;;;;;;;2.53;1.47;;;5.70;99.90;;;;;;5007653;28;20735;-80
2023/01/09 06:41:11;;;;;;;2.80;1.40;;;5.70;99.90;;;;;;4989381;28;21032;-79
2023/01/09 06:43:42;;;;;;;2.37;1.30;;;5.70;99.90;;;;;;5007661;28;20347;-80
2023/01/09 06:46:10;;;;;;;3.00;1.40;;;5.70;99.90;;;;;;4988864;28;20315;-81
2023/01/09 06:48:37;;;;;;;2.30;1.37;;;5.70;99.90;;;;;;5008781;28;20221;-82
2023/01/09 06:51:04;;;;;;;2.50;1.40;;;5.80;99.90;;;;;;4990363;28;20256;-80
2023/01/09 06:53:31;;;;;;;1.60;1.23;;;5.80;99.90;;;;;;5005937;28;20230;-80
2023/01/09 06:55:58;;;;;;;4.10;1.30;;;5.80;99.90;;;;;;5008479;28;20271;-79
2023/01/09 06:58:25;;;;;;;1.80;1.10;;;5.90;99.90;;;;;;5004792;28;20259;-81
2023/01/09 07:00:56;;;;;;;3.13;1.50;;;5.90;99.90;;;;;;5004379;28;20324;-81
2023/01/09 07:03:23;;;;;;;3.53;1.40;;;5.80;99.90;;;;;;5004352;28;20224;-81
2023/01/09 07:05:50;;;;;;;2.10;1.13;;;5.90;99.90;;;;;;5004121;28;20255;-81
2023/01/09 07:08:20;;;;;;;1.63;1.50;;;5.90;99.90;;;;;;5004376;28;20228;-81
2023/01/09 07:10:50;;;;;;;3.70;1.60;;;5.90;99.90;;;;;;5004869;28;20294;-81
2023/01/09 07:13:17;;;;;;;1.87;1.50;;;5.90;99.90;;;;;;4983812;28;20221;-80
2023/01/09 07:15:46;;;;;;;1.90;1.70;;;5.90;99.90;;;;;;4990067;28;20229;-81
2023/01/09 07:18:14;;;;;;;2.10;1.90;;;5.90;99.90;;;;;;5003191;28;20223;-81
2023/01/09 07:20:43;;;;;;;1.87;1.77;;;5.90;99.90;;;;;;5006942;28;20232;-81
2023/01/09 07:23:12;;;;;;;2.83;1.90;;;5.90;99.90;;;;;;4974666;28;20236;-80
2023/01/09 07:25:39;;;;;;;2.30;2.10;;;5.90;99.90;;;;;;5004043;28;20263;-81
2023/01/09 07:28:06;;;;;;;3.33;2.07;;;5.90;99.90;;;;;;5007003;28;20228;-80
2023/01/09 07:30:33;;;;;;;2.33;1.90;;;5.90;99.90;;;;;;4991780;28;20229;-80
2023/01/09 07:33:00;;;;;;;2.27;1.80;;;5.90;99.90;;;;;;5007352;28;20623;-80
2023/01/09 07:35:27;;;;;;;2.43;1.83;;;5.90;99.90;;;;;;5007185;28;20239;-80
2023/01/09 07:37:54;;;;;;;4.00;2.30;;;6.00;99.90;;;;;;4989975;28;20259;-80
2023/01/09 07:40:21;;;;;;;5.67;2.13;;;6.00;99.90;;;;;;4989552;28;20785;-80
2023/01/09 07:42:48;;;;;;;3.73;2.07;;;6.00;99.90;;;;;;4994883;28;20682;-82
2023/01/09 07:45:15;;;;;;;3.10;2.17;;;6.00;99.90;;;;;;4993056;28;20228;-82
2023/01/09 07:47:42;;;;;;;2.87;2.27;;;6.00;99.90;;;;;;4991989;28;20937;-82
2023/01/09 07:50:10;;;;;;;3.53;2.30;;;6.00;99.90;;;;;;4991166;28;20223;-82
2023/01/09 07:52:39;;;;;;;3.53;2.67;;;6.00;99.90;;;;;;5006507;28;20229;-82
2023/01/09 07:55:07;;;;;;;3.60;3.30;;;6.00;99.90;;;;;;5006355;28;20921;-82
2023/01/09 07:57:38;;;;;;;4.57;3.37;;;6.00;99.90;;;;;;4988347;28;20221;-82
2023/01/09 08:00:09;;;;;;;6.13;4.23;;;6.00;99.90;;;;;;5005401;28;20677;-82
2023/01/09 08:02:39;;;;;;;4.80;3.70;;;5.90;99.90;;;;;;5010383;28;20246;-82
2023/01/09 08:05:07;;;;;;;7.23;4.07;;;6.00;99.90;;;;;;5004757;28;20332;-83
2023/01/09 08:07:34;;;;;;;5.67;3.90;;;5.90;99.90;;;;;;5008207;28;20251;-80
2023/01/09 08:10:02;;;;;;;5.50;4.40;;;5.90;99.90;;;;;;5010097;28;20367;-83
2023/01/09 08:12:29;;;;;;;8.00;5.77;;;5.90;99.90;;;;;;4990537;28;20237;-82
2023/01/09 08:14:56;;;;;;;6.20;5.03;;;6.00;99.90;;;;;;5004410;28;20258;-82
2023/01/09 08:17:22;;;;;;;28.33;6.90;;;6.00;99.90;;;;;;5004304;28;20221;-82
2023/01/09 08:19:49;;;;;;;21.43;6.57;;;6.00;99.90;;;;;;5007574;28;20249;-82
2023/01/09 08:22:16;;;;;;;6.20;5.60;;;6.00;99.90;;;;;;5005561;28;20231;-84
2023/01/09 08:24:42;;;;;;;8.13;6.03;;;6.00;99.90;;;;;;5002555;28;20231;-83
2023/01/09 08:27:10;;;;;;;7.00;6.30;;;6.00;99.90;;;;;;4987656;28;20260;-83
2023/01/09 08:29:37;;;;;;;9.00;5.67;;;6.00;99.90;;;;;;4998463;28;20234;-81
2023/01/09 08:32:04;;;;;;;7.43;5.87;;;6.10;99.90;;;;;;5002475;28;20223;-81
2023/01/09 08:34:31;;;;;;;9.57;6.00;;;6.10;99.90;;;;;;4985473;28;20851;-82
2023/01/09 08:36:58;;;;;;;6.63;5.87;;;6.10;99.90;;;;;;5000182;28;20264;-82
2023/01/09 08:39:24;;;;;;;8.70;6.43;;;6.10;99.90;;;;;;5003141;28;20226;-84
2023/01/09 08:47:24;;;;;;;7.73;5.93;;;6.10;99.90;;;;;;5009834;28;20237;-82
2023/01/09 08:49:51;;;;;;;10.07;6.87;;;6.20;99.90;;;;;;5007443;28;20242;-82
2023/01/09 08:52:18;;;;;;;10.10;6.87;;;6.20;99.90;;;;;;4994698;28;20225;-82
2023/01/09 08:54:44;;;;;;;10.13;6.80;;;6.20;99.90;;;;;;5011022;28;20243;-81
2023/01/09 08:57:11;;;;;;;7.33;6.63;;;6.20;99.90;;;;;;4994987;28;20235;-81
2023/01/09 08:59:39;;;;;;;9.70;7.13;;;6.20;99.90;;;;;;5011047;28;20225;-82
2023/01/09 09:02:06;;;;;;;9.70;7.20;;;6.20;99.90;;;;;;5012300;28;20781;-81
2023/01/09 09:04:33;;;;;;;9.20;7.17;;;6.20;99.90;;;;;;5011042;28;20231;-82
2023/01/09 09:07:00;;;;;;;9.63;7.47;;;6.30;99.90;;;;;;4994133;28;20226;-81
2023/01/09 09:09:26;;;;;;;11.43;7.07;;;6.30;99.90;;;;;;5010668;28;20257;-81
2023/01/09 09:11:53;;;;;;;10.00;6.90;;;6.30;99.90;;;;;;5011804;28;20348;-82
2023/01/09 09:17:05;;;;;;;8.90;7.00;;;6.40;99.90;;;;;;4993121;28;20226;-82
2023/01/09 09:19:32;;;;;;;10.43;7.47;;;6.40;99.90;;;;;;4992863;28;20221;-81
2023/01/09 09:21:59;;;;;;;11.87;8.23;;;6.50;99.90;;;;;;5009693;28;20234;-82
2023/01/09 09:24:28;;;;;;;13.50;8.13;;;6.50;99.90;;;;;;4992539;28;20233;-81
2023/01/09 09:26:55;;;;;;;12.40;7.90;;;6.60;99.90;;;;;;5010042;28;20242;-81
2023/01/09 09:29:22;;;;;;;9.67;7.87;;;6.80;99.90;;;;;;5011222;28;20226;-81
2023/01/09 09:31:48;;;;;;;10.63;7.60;;;6.90;99.90;;;;;;5011083;28;20272;-81
2023/01/09 09:34:17;;;;;;;10.23;7.30;;;7.00;99.90;;;;;;5010453;28;20231;-81
2023/01/09 09:36:44;;;;;;;11.87;7.63;;;7.10;99.90;;;;;;5010458;28;20811;-82
2023/01/09 09:39:10;;;;;;;11.47;7.60;;;7.10;99.90;;;;;;5009914;28;20233;-82
2023/01/09 09:45:06;;;;;;;10.07;6.90;;;7.10;99.90;;;;;;5010753;28;20943;-81
2023/01/09 09:47:44;;;;;;;11.13;7.10;;;7.10;99.90;;;;;;5008259;28;20228;-81
2023/01/09 09:50:26;;;;;;;11.97;6.97;;;7.10;99.90;;;;;;5008228;28;20256;-81
2023/01/09 09:53:00;;;;;;;9.67;6.77;;;7.00;99.90;;;;;;5009667;28;20225;-82
2023/01/09 09:55:30;;;;;;;12.87;6.73;;;7.00;99.90;;;;;;5010256;28;20245;-81
2023/01/09 09:57:59;;;;;;;8.70;6.67;;;6.90;99.90;;;;;;5009973;28;20229;-82
2023/01/09 10:00:27;;;;;;;9.43;6.23;;;6.80;99.90;;;;;;5008130;28;20272;-81
2023/01/09 10:02:58;;;;;;;10.03;6.63;;;6.80;99.90;;;;;;5005600;28;20240;-82
2023/01/09 10:05:30;;;;;;;8.53;6.07;;;6.70;99.90;;;;;;4989535;28;20639;-82
2023/01/09 10:08:02;;;;;;;10.60;6.00;;;6.70;99.90;;;;;;5003351;28;20243;-82
2023/01/09 10:10:33;;;;;;;9.87;5.13;;;6.60;99.90;;;;;;4988299;28;20234;-82
2023/01/09 10:14:03;;;;;;;7.33;5.10;;;6.60;99.90;;;;;;4996020;28;20227;-82
2023/01/09 10:15:56;;;;;;;11.23;5.83;;;6.60;99.90;;;;;;4988147;28;20285;-82
2023/01/09 10:18:32;;;;;;;9.17;5.47;;;6.50;99.90;;;;;;5001955;28;20217;-82
2023/01/09 10:21:07;;;;;;;8.90;5.27;;;6.60;99.90;;;;;;4984870;28;20292;-82
2023/01/09 10:23:48;;;;;;;8.30;4.80;;;6.50;99.90;;;;;;4999477;28;20270;-82
2023/01/09 10:26:22;;;;;;;8.40;5.17;;;6.50;99.90;;;;;;5000139;28;20222;-82
2023/01/09 10:29:13;;;;;;;10.57;5.07;;;6.50;99.90;;;;;;4996215;28;20225;-82
2023/01/09 10:31:53;;;;;;;9.03;4.77;;;6.50;99.90;;;;;;4996974;28;20230;-82
2023/01/09 10:34:36;;;;;;;9.67;4.90;;;6.50;99.90;;;;;;5003166;28;20299;-82
2023/01/09 10:37:10;;;;;;;9.00;5.10;;;6.50;99.90;;;;;;5006516;28;20231;-82
2023/01/09 10:39:43;;;;;;;9.97;5.50;;;6.50;99.90;;;;;;5000958;28;20225;-82
2023/01/09 10:42:20;;;;;;;9.57;5.80;;;6.50;99.90;;;;;;4981431;28;20623;-82
2023/01/09 10:44:53;;;;;;;13.23;5.77;;;6.50;99.90;;;;;;4996391;28;20233;-82
2023/01/09 10:47:27;;;;;;;10.27;4.87;;;6.50;99.90;;;;;;4994492;28;20685;-82
2023/01/09 10:49:57;;;;;;;7.57;4.87;;;6.50;99.90;;;;;;5004623;28;20215;-82
2023/01/09 10:52:33;;;;;;;10.33;5.47;;;6.50;99.90;;;;;;4988765;28;25354;-82
2023/01/09 10:55:07;;;;;;;12.20;5.40;;;6.50;99.90;;;;;;4984668;28;20288;-82
2023/01/09 10:57:45;;;;;;;11.13;5.00;;;6.50;99.90;;;;;;5001626;28;20645;-82
2023/01/09 11:00:17;;;;;;;13.57;7.63;;;6.50;99.90;;;;;;4989293;28;20772;-82
2023/01/09 11:02:46;;;;;;;7.87;5.37;;;6.60;99.90;;;;;;4989622;28;20853;-82
2023/01/09 11:05:20;;;;;;;14.50;6.20;;;6.60;99.90;;;;;;4988058;28;20235;-81
2023/01/09 11:07:51;;;;;;;10.07;5.57;;;6.60;99.90;;;;;;4990001;28;20242;-83
2023/01/09 11:10:18;;;;;;;9.10;5.07;;;6.60;99.90;;;;;;4993412;28;20258;-82
2023/01/09 11:12:45;;;;;;;11.23;5.20;;;6.60;99.90;;;;;;4992387;28;20237;-82
2023/01/09 11:15:27;;;;;;;13.03;4.87;;;6.60;99.90;;;;;;4995919;28;20301;-82
2023/01/09 11:18:15;;;;;;;8.17;4.50;;;6.60;99.90;;;;;;4986609;28;20221;-82
2023/01/09 11:20:42;;;;;;;8.40;4.70;;;6.60;99.90;;;;;;4983767;28;20713;-82
2023/01/09 11:23:24;;;;;;;9.30;5.30;;;6.60;99.90;;;;;;4983006;28;20933;-82
2023/01/09 11:25:53;;;;;;;12.03;4.90;;;6.60;99.90;;;;;;5000948;28;20239;-82
2023/01/09 11:28:19;;;;;;;8.27;4.83;;;6.60;99.90;;;;;;4976711;28;20231;-82
2023/01/09 11:30:53;;;;;;;8.43;4.33;;;6.60;99.90;;;;;;4997337;28;20931;-82
2023/01/09 11:33:23;;;;;;;6.73;4.13;;;6.60;99.90;;;;;;4986257;28;20225;-83
2023/01/09 11:36:06;;;;;;;13.27;5.43;;;6.60;99.90;;;;;;4998166;28;20234;-82
2023/01/09 11:38:48;;;;;;;13.57;5.20;;;6.60;99.90;;;;;;4987565;28;20246;-82
2023/01/09 11:41:18;;;;;;;7.60;5.07;;;6.70;99.90;;;;;;4999617;28;20222;-82
2023/01/09 11:43:48;;;;;;;9.57;4.60;;;6.70;99.90;;;;;;5000702;28;20241;-82
2023/01/09 11:46:31;;;;;;;9.50;4.47;;;6.80;99.90;;;;;;4988750;28;20994;-83
2023/01/09 11:49:00;;;;;;;9.37;4.60;;;6.90;99.90;;;;;;4988435;28;22161;-82
2023/01/09 11:51:28;;;;;;;8.73;4.40;;;6.90;99.90;;;;;;4999001;28;20295;-82
2023/01/09 11:54:20;;;;;;;9.77;4.03;;;7.00;99.90;;;;;;4999328;28;20232;-82
2023/01/09 11:56:49;;;;;;;9.57;4.60;;;7.10;99.90;;;;;;4986068;28;20950;-82
2023/01/09 11:59:18;;;;;;;7.53;4.07;;;7.20;99.90;;;;;;4978595;28;20230;-82
2023/01/09 12:02:11;;;;;;;7.77;4.40;;;7.30;99.90;;;;;;4983892;28;20511;-82
2023/01/09 12:04:47;;;;;;;8.00;4.07;;;7.30;99.90;;;;;;5006639;28;20245;-82
2023/01/09 12:07:37;;;;;;;8.40;4.60;;;7.40;99.90;;;;;;4994941;28;20259;-83
2023/01/09 12:10:19;;;;;;;7.20;4.17;;;7.50;99.90;;;;;;5006925;28;20723;-82
2023/01/09 12:12:54;;;;;;;11.43;4.50;;;7.50;99.90;;;;;;5001626;28;20360;-82
2023/01/09 12:15:31;;;;;;;8.40;3.93;;;7.60;99.90;;;;;;5010971;28;20256;-82
2023/01/09 12:18:24;;;;;;;6.93;4.10;;;7.60;99.90;;;;;;4995914;28;20314;-82
2023/01/09 12:21:06;;;;;;;13.17;7.90;;;7.60;99.90;;;;;;5001498;28;20335;-82
2023/01/09 12:23:48;;;;;;;10.73;6.10;;;7.60;99.90;;;;;;4986223;28;20228;-82
2023/01/09 12:26:24;;;;;;;12.70;6.57;;;7.60;99.90;;;;;;4996646;28;20238;-82
2023/01/09 12:29:21;;;;;;;12.20;5.37;;;7.70;99.90;;;;;;4999241;28;20266;-82
2023/01/09 12:32:19;;;;;;;8.33;4.87;;;7.60;99.90;;;;;;4992568;28;20330;-82
2023/01/09 12:34:59;;;;;;;9.20;5.77;;;7.50;99.90;;;;;;4979280;28;20804;-83
2023/01/09 12:37:52;;;;;;;13.43;5.83;;;7.50;99.90;;;;;;4981508;28;20237;-82
2023/01/09 12:40:31;;;;;;;8.10;5.30;;;7.50;99.90;;;;;;4982548;28;20307;-82
2023/01/09 12:43:09;;;;;;;8.87;5.70;;;7.50;99.90;;;;;;4998460;28;20224;-82
2023/01/09 12:45:49;;;;;;;8.27;4.83;;;7.40;99.90;;;;;;4999748;28;20301;-82
2023/01/09 12:48:42;;;;;;;8.80;3.97;;;7.40;99.90;;;;;;4999425;28;20271;-82
2023/01/09 12:51:25;;;;;;;9.87;4.63;;;7.40;99.90;;;;;;4980973;28;20769;-82
2023/01/09 12:53:59;;;;;;;9.93;4.70;;;7.30;99.90;;;;;;4983583;28;20611;-82
2023/01/09 12:56:31;;;;;;;7.27;4.47;;;7.30;99.90;;;;;;4986780;28;20233;-82
2023/01/09 12:59:06;;;;;;;8.23;4.10;;;7.30;99.90;;;;;;4998720;28;20935;-83
2023/01/09 13:01:36;;;;;;;7.97;4.07;;;7.30;99.90;;;;;;4989499;28;20234;-82
2023/01/09 13:04:12;;;;;;;6.80;4.07;;;7.20;99.90;;;;;;4978847;28;20230;-82
2023/01/09 13:06:44;;;;;;;7.70;4.07;;;7.20;99.90;;;;;;4978128;28;20810;-82
2023/01/09 13:09:23;;;;;;;13.53;5.27;;;7.10;99.90;;;;;;4981371;28;20836;-82
2023/01/09 13:12:04;;;;;;;10.17;5.37;;;7.10;99.90;;;;;;4993130;28;20234;-82
2023/01/09 13:14:56;;;;;;;8.40;5.30;;;7.10;99.90;;;;;;4998416;28;20255;-84
2023/01/09 13:17:27;;;;;;;7.37;5.10;;;7.00;99.90;;;;;;4999042;28;20222;-84
2023/01/09 13:19:54;;;;;;;9.27;5.10;;;7.00;99.90;;;;;;4992973;28;20376;-83
2023/01/09 13:22:25;;;;;;;10.67;6.60;;;6.90;99.90;;;;;;4981860;28;20226;-82
2023/01/09 13:25:05;;;;;;;14.00;9.17;;;6.90;99.90;;;;;;4998213;28;20223;-81
2023/01/09 13:27:37;;;;;;;11.07;6.33;;;6.90;99.90;;;;;;4998471;28;20220;-83
2023/01/09 13:30:20;;;;;;;9.07;5.93;;;6.80;99.90;;;;;;4977344;28;20223;-83